Time;durP1;ratioP1;P1;durP2;ratioP2;P2;SDS_P1;SDS_P2;PMS_P1;PMS_P2;Temp;Humidity;BMP_temperature;BMP_pressure;BME280_temperature;BME280_humidity;BME280_pressure;Samples;Min_cycle;Max_cycle;Signal;HPM_P1;HPM_P2
2023/11/26 00:01:34;;;;;;;1.65;1.25;;;;;;;0.88;73.88;92411.91;4868606;29;20040;-72
2023/11/26 00:04:00;;;;;;;0.95;0.60;;;;;;;0.88;73.98;92420.00;4836774;29;20041;-72
2023/11/26 00:06:25;;;;;;;0.77;0.63;;;;;;;0.83;74.20;92415.16;4868138;29;20053;-72
2023/11/26 00:08:50;;;;;;;1.92;0.70;;;;;;;0.81;74.17;92420.25;4837234;29;20125;-73
2023/11/26 00:11:16;;;;;;;2.20;0.50;;;;;;;0.73;74.35;92429.75;4853383;29;20034;-72
2023/11/26 00:13:41;;;;;;;0.40;0.28;;;;;;;0.72;74.66;92430.97;4854299;29;20486;-72
2023/11/26 00:16:06;;;;;;;0.85;0.65;;;;;;;0.64;74.52;92435.84;4835977;29;20033;-72
2023/11/26 00:18:32;;;;;;;0.65;0.60;;;;;;;0.73;75.13;92454.09;4854413;29;20053;-71
2023/11/26 00:20:57;;;;;;;0.65;0.50;;;;;;;0.69;75.08;92454.22;4852785;29;20521;-72
2023/11/26 00:23:23;;;;;;;1.25;0.57;;;;;;;0.76;74.72;92456.72;4854356;29;20057;-73
2023/11/26 00:25:48;;;;;;;0.30;0.30;;;;;;;0.76;74.61;92455.94;4852225;29;20117;-73
2023/11/26 00:28:13;;;;;;;0.75;0.32;;;;;;;0.79;74.68;92453.13;4867039;29;20040;-73
2023/11/26 00:30:39;;;;;;;0.40;0.30;;;;;;;0.77;74.57;92452.06;4867698;29;20511;-72
2023/11/26 00:33:04;;;;;;;0.40;0.30;;;;;;;0.74;74.51;92456.38;4866709;29;20057;-72
2023/11/26 00:35:30;;;;;;;0.38;0.30;;;;;;;0.67;75.00;92458.53;4868346;29;20094;-72
2023/11/26 00:37:55;;;;;;;0.60;0.32;;;;;;;0.61;75.15;92452.91;4852729;29;20461;-73
2023/11/26 00:40:24;;;;;;;0.68;0.30;;;;;;;0.61;75.42;92452.91;4854304;29;20040;-72
2023/11/26 00:42:50;;;;;;;0.28;0.28;;;;;;;0.58;75.73;92453.81;4854968;29;20058;-72
2023/11/26 00:45:15;;;;;;;0.65;0.30;;;;;;;0.65;75.71;92463.63;4855711;29;20393;-73
2023/11/26 00:47:41;;;;;;;0.52;0.38;;;;;;;0.51;75.42;92457.47;4871410;29;20037;-72
2023/11/26 00:50:08;;;;;;;0.35;0.30;;;;;;;0.54;75.41;92466.66;4856489;29;20081;-72
2023/11/26 00:52:34;;;;;;;0.77;0.30;;;;;;;0.63;75.46;92458.66;4857497;29;20040;-72
2023/11/26 00:55:00;;;;;;;0.50;0.50;;;;;;;0.58;75.01;92461.16;4839274;29;20038;-73
2023/11/26 00:57:26;;;;;;;0.57;0.43;;;;;;;0.57;75.52;92460.38;4871584;29;20426;-72
2023/11/26 00:59:52;;;;;;;1.05;0.60;;;;;;;0.54;75.55;92458.56;4856629;29;20112;-72
2023/11/26 01:02:19;;;;;;;0.93;0.63;;;;;;;0.60;75.75;92466.88;4871092;29;20120;-74
2023/11/26 01:04:44;;;;;;;0.93;0.68;;;;;;;0.62;75.34;92472.59;4871183;29;20089;-72
2023/11/26 01:07:11;;;;;;;0.43;0.30;;;;;;;0.60;75.20;92464.94;4856394;29;20496;-73
2023/11/26 01:09:36;;;;;;;1.05;0.40;;;;;;;0.57;75.28;92479.31;4871358;29;20773;-71
2023/11/26 01:12:03;;;;;;;2.35;0.60;;;;;;;0.55;75.51;92472.81;4870159;29;20104;-73
2023/11/26 01:14:29;;;;;;;1.00;0.50;;;;;;;0.53;75.82;92474.03;4871436;29;20060;-73
2023/11/26 01:16:54;;;;;;;0.40;0.40;;;;;;;0.53;75.30;92473.25;4870003;29;20473;-72
2023/11/26 01:19:20;;;;;;;2.28;0.60;;;;;;;0.49;75.08;92480.72;4871191;29;20088;-73
2023/11/26 01:21:46;;;;;;;0.50;0.40;;;;;;;0.48;75.87;92481.91;4856214;29;20033;-73
2023/11/26 01:24:11;;;;;;;0.60;0.50;;;;;;;0.52;75.24;92482.56;4854912;29;20072;-71
2023/11/26 01:26:38;;;;;;;0.90;0.50;;;;;;;0.53;75.45;92489.47;4839659;29;20029;-73
2023/11/26 01:29:03;;;;;;;0.80;0.50;;;;;;;0.49;75.64;92491.53;4854561;29;20364;-72
2023/11/26 01:31:29;;;;;;;1.02;0.40;;;;;;;0.47;75.07;92488.50;4870944;29;20045;-72
2023/11/26 01:33:54;;;;;;;0.70;0.70;;;;;;;0.52;75.62;92496.84;4869725;29;20397;-71
2023/11/26 01:36:20;;;;;;;1.17;0.40;;;;;;;0.47;75.13;92502.03;4856753;29;20041;-72
2023/11/26 01:38:45;;;;;;;0.65;0.63;;;;;;;0.45;75.45;92498.97;4855609;29;20044;-73
2023/11/26 01:41:11;;;;;;;0.85;0.45;;;;;;;0.57;75.28;92506.34;4854823;29;20033;-72
2023/11/26 01:43:36;;;;;;;0.73;0.55;;;;;;;0.55;75.22;92518.78;4839471;29;20034;-72
2023/11/26 01:46:12;;;;;;;0.70;0.52;;;;;;;0.55;75.15;92530.34;4839105;29;20124;-72
2023/11/26 01:48:38;;;;;;;1.02;0.50;;;;;;;0.56;75.23;92533.81;4839808;29;20038;-71
2023/11/26 01:51:06;;;;;;;0.88;0.57;;;;;;;0.59;75.15;92539.13;4855214;29;20086;-72
2023/11/26 01:53:31;;;;;;;0.40;0.38;;;;;;;0.59;75.15;92546.47;4870188;29;20105;-73
2023/11/26 01:55:57;;;;;;;0.60;0.45;;;;;;;0.55;75.20;92540.41;4838293;29;20740;-71
2023/11/26 01:58:23;;;;;;;0.95;0.57;;;;;;;0.58;75.18;92547.69;4856091;29;20454;-72
2023/11/26 02:00:50;;;;;;;0.60;0.60;;;;;;;0.55;75.28;92545.81;4838847;29;20101;-72
2023/11/26 02:03:15;;;;;;;0.60;0.40;;;;;;;0.58;75.30;92553.84;4869932;29;20045;-73
2023/11/26 02:05:41;;;;;;;0.52;0.47;;;;;;;0.56;75.37;92552.75;4854948;29;20042;-73
2023/11/26 02:08:06;;;;;;;0.35;0.35;;;;;;;0.54;75.76;92555.88;4869444;29;20094;-72
2023/11/26 02:10:32;;;;;;;0.30;0.30;;;;;;;0.48;75.57;92558.34;4856160;29;20465;-72
2023/11/26 02:13:01;;;;;;;0.50;0.40;;;;;;;0.53;75.96;92562.47;4838017;29;20129;-71
2023/11/26 02:15:27;;;;;;;0.93;0.40;;;;;;;0.55;75.36;92570.91;4839198;29;20072;-71
2023/11/26 02:17:52;;;;;;;0.70;0.40;;;;;;;0.60;75.54;92577.75;4869154;29;20057;-72
2023/11/26 02:20:18;;;;;;;0.50;0.40;;;;;;;0.59;75.28;92576.97;4838682;29;20585;-72
2023/11/26 02:22:43;;;;;;;0.55;0.50;;;;;;;0.58;75.51;92580.88;4869721;29;20116;-72
2023/11/26 02:25:09;;;;;;;0.77;0.30;;;;;;;0.68;75.30;92587.91;4869305;29;20592;-72
2023/11/26 02:27:34;;;;;;;0.63;0.35;;;;;;;0.61;75.06;92596.22;4838653;29;20034;-72
2023/11/26 02:30:00;;;;;;;0.55;0.50;;;;;;;0.64;75.02;92603.50;4854333;29;20173;-71
2023/11/26 02:32:25;;;;;;;0.50;0.40;;;;;;;0.65;74.83;92610.41;4855474;29;20435;-73
2023/11/26 02:34:51;;;;;;;0.57;0.45;;;;;;;0.60;74.71;92613.66;4854503;29;20026;-73
2023/11/26 02:37:16;;;;;;;0.52;0.40;;;;;;;0.63;74.93;92617.41;4855587;29;20508;-73
2023/11/26 02:39:42;;;;;;;1.02;0.55;;;;;;;0.58;74.97;92620.69;4854728;29;20113;-73
2023/11/26 02:42:07;;;;;;;1.85;0.45;;;;;;;0.59;74.89;92625.66;4855110;29;20128;-72
2023/11/26 02:44:33;;;;;;;0.40;0.40;;;;;;;0.58;74.98;92632.25;4853576;29;20065;-73
2023/11/26 02:46:58;;;;;;;0.82;0.50;;;;;;;0.60;74.46;92634.50;4854732;29;20533;-72
2023/11/26 02:49:25;;;;;;;0.63;0.43;;;;;;;0.53;74.70;92635.47;4869637;29;20421;-72
2023/11/26 02:51:50;;;;;;;0.80;0.52;;;;;;;0.45;74.98;92637.59;4868175;29;20049;-72
2023/11/26 02:54:16;;;;;;;0.63;0.40;;;;;;;0.50;74.89;92652.53;4855876;29;20029;-72
2023/11/26 02:56:43;;;;;;;0.85;0.57;;;;;;;0.46;74.99;92641.06;4853825;29;20409;-72
2023/11/26 02:59:10;;;;;;;1.00;0.90;;;;;;;0.44;75.02;92646.91;4869165;29;20037;-72
2023/11/26 03:01:35;;;;;;;0.40;0.40;;;;;;;0.41;75.09;92647.00;4868535;29;20022;-72
2023/11/26 03:04:02;;;;;;;1.20;0.70;;;;;;;0.42;75.36;92651.22;4854200;29;20433;-72
2023/11/26 03:06:31;;;;;;;0.73;0.60;;;;;;;0.39;74.93;92654.78;4837854;29;20045;-72
2023/11/26 03:09:37;;;;;;;0.73;0.50;;;;;;;0.38;75.31;92664.81;4853936;29;20044;-72
2023/11/26 03:14:41;;;;;;;;;;;;;;;0.41;75.00;92671.34;4867281;29;20085;-72
2023/11/26 03:17:06;;;;;;;1.00;0.88;;;;;;;0.37;75.00;92674.13;4868258;29;20011;-72
2023/11/26 03:19:32;;;;;;;1.38;0.63;;;;;;;0.35;74.78;92684.63;4868830;29;20033;-72
2023/11/26 03:21:59;;;;;;;0.75;0.70;;;;;;;0.32;75.03;92682.00;4836938;29;20402;-74
2023/11/26 03:24:24;;;;;;;0.70;0.70;;;;;;;0.35;74.90;92695.44;4854972;29;20049;-72
2023/11/26 03:26:50;;;;;;;1.20;0.90;;;;;;;0.27;74.90;92688.66;4852074;29;20385;-73
2023/11/26 03:29:15;;;;;;;0.98;0.88;;;;;;;0.18;74.86;92685.84;4854631;29;20030;-72
2023/11/26 03:31:41;;;;;;;1.50;1.23;;;;;;;0.22;75.10;92700.00;4867804;29;20385;-72
2023/11/26 03:34:09;;;;;;;2.08;1.70;;;;;;;0.25;74.86;92709.97;4854156;29;20037;-72
2023/11/26 03:36:35;;;;;;;2.17;1.40;;;;;;;0.10;74.42;92693.34;4868125;29;20060;-73
2023/11/26 03:39:02;;;;;;;1.55;1.27;;;;;;;0.18;74.60;92710.91;4867574;29;20116;-73
2023/11/26 03:41:27;;;;;;;2.22;1.40;;;;;;;0.20;74.85;92732.09;4853431;29;20044;-72
2023/11/26 03:43:52;;;;;;;2.20;1.55;;;;;;;0.16;74.35;92726.75;4867262;29;20030;-72
2023/11/26 03:46:18;;;;;;;2.47;1.85;;;;;;;0.11;74.16;92729.22;4854547;29;20045;-72
2023/11/26 03:48:45;;;;;;;2.67;2.00;;;;;;;0.07;74.09;92737.44;4821481;29;20452;-72
2023/11/26 03:51:17;;;;;;;3.78;2.30;;;;;;;0.07;74.21;92747.47;4868267;29;20022;-72
2023/11/26 03:53:43;;;;;;;2.97;2.30;;;;;;;0.06;74.29;92740.53;4837477;29;20025;-72
2023/11/26 03:56:08;;;;;;;4.20;3.00;;;;;;;0.01;73.82;92752.63;4836595;29;20053;-71
2023/11/26 03:58:34;;;;;;;2.70;2.13;;;;;;;-0.08;73.80;92765.94;4868543;29;20122;-72
2023/11/26 04:00:59;;;;;;;4.45;2.75;;;;;;;-0.12;74.02;92774.13;4866875;29;20041;-73
2023/11/26 04:03:25;;;;;;;3.65;2.83;;;;;;;-0.16;74.10;92775.41;4854528;29;20405;-72
2023/11/26 04:05:50;;;;;;;3.22;2.63;;;;;;;-0.21;74.29;92773.22;4852995;29;20033;-72
2023/11/26 04:08:16;;;;;;;3.90;2.97;;;;;;;-0.16;74.12;92783.50;4868265;29;20061;-72
2023/11/26 04:10:41;;;;;;;4.47;2.80;;;;;;;-0.22;73.96;92777.09;4867733;29;20081;-72
2023/11/26 04:13:06;;;;;;;4.35;2.75;;;;;;;-0.27;74.08;92797.25;4867643;29;20030;-72
2023/11/26 04:15:32;;;;;;;4.88;3.33;;;;;;;-0.30;73.88;92801.53;4854266;29;20038;-72
2023/11/26 04:17:57;;;;;;;3.90;3.28;;;;;;;-0.29;73.58;92805.00;4866865;29;20034;-72
2023/11/26 04:20:23;;;;;;;6.45;3.80;;;;;;;-0.33;73.27;92810.47;4854198;29;20034;-72
2023/11/26 04:22:48;;;;;;;6.18;3.50;;;;;;;-0.32;73.39;92827.44;4836137;29;20559;-72
2023/11/26 04:25:14;;;;;;;4.55;3.05;;;;;;;-0.37;73.13;92819.84;4854282;29;20081;-72
2023/11/26 04:27:40;;;;;;;6.25;3.10;;;;;;;-0.39;72.81;92822.97;4867403;29;20033;-72
2023/11/26 04:30:07;;;;;;;4.47;2.58;;;;;;;-0.44;71.85;92830.78;4867175;29;20544;-72
2023/11/26 04:32:33;;;;;;;5.85;4.00;;;;;;;-0.52;73.45;92835.56;4852073;29;20044;-71
2023/11/26 04:34:58;;;;;;;4.65;3.17;;;;;;;-0.54;73.68;92843.31;4851491;29;20120;-72
2023/11/26 04:37:24;;;;;;;4.72;3.95;;;;;;;-0.54;73.40;92848.72;4854253;29;20355;-72
2023/11/26 04:39:49;;;;;;;5.30;3.38;;;;;;;-0.54;73.29;92852.16;4852356;29;20039;-73
2023/11/26 04:42:15;;;;;;;6.32;3.50;;;;;;;-0.60;72.99;92853.06;4868145;29;20040;-71
2023/11/26 04:44:42;;;;;;;3.92;3.40;;;;;;;-0.64;72.79;92863.94;4866652;29;20025;-71
2023/11/26 04:47:08;;;;;;;4.82;2.92;;;;;;;-0.65;72.55;92862.41;4853698;29;20041;-73
2023/11/26 04:49:34;;;;;;;4.50;2.90;;;;;;;-0.78;72.75;92858.81;4853178;29;20504;-72
2023/11/26 04:52:00;;;;;;;5.97;3.50;;;;;;;-0.77;72.22;92878.47;4867050;29;20037;-72
2023/11/26 04:54:26;;;;;;;4.25;3.17;;;;;;;-0.90;72.77;92883.72;4853619;29;20412;-72
2023/11/26 04:56:53;;;;;;;4.55;2.85;;;;;;;-0.94;72.63;92893.81;4852231;29;20049;-72
2023/11/26 04:59:18;;;;;;;4.32;3.13;;;;;;;-0.91;73.48;92917.28;4867988;29;20038;-72
2023/11/26 05:01:48;;;;;;;3.17;2.88;;;;;;;-0.90;73.26;92911.47;4866446;29;20417;-72
2023/11/26 05:04:15;;;;;;;4.32;2.88;;;;;;;-0.89;72.60;92914.91;4837439;29;20032;-72
2023/11/26 05:06:42;;;;;;;4.72;2.95;;;;;;;-0.93;71.83;92920.38;4820930;29;20030;-72
2023/11/26 05:09:11;;;;;;;4.25;2.97;;;;;;;-0.94;71.39;92926.19;4866699;29;20066;-72
2023/11/26 05:11:37;;;;;;;3.63;3.03;;;;;;;-0.98;71.75;92937.00;4853394;29;20401;-72
2023/11/26 05:14:02;;;;;;;4.40;2.78;;;;;;;-0.97;71.72;92949.34;4866410;29;20038;-72
2023/11/26 05:16:28;;;;;;;4.03;2.75;;;;;;;-1.02;71.49;92947.13;4853830;29;20041;-71
2023/11/26 05:18:53;;;;;;;5.05;2.75;;;;;;;-1.00;71.78;92960.94;4866345;29;20109;-72
2023/11/26 05:21:18;;;;;;;3.72;2.58;;;;;;;-1.01;71.83;92959.44;4853413;29;20038;-72
2023/11/26 05:23:44;;;;;;;5.00;2.70;;;;;;;-1.03;71.29;92977.97;4852274;29;20203;-72
2023/11/26 05:26:13;;;;;;;3.33;2.25;;;;;;;-1.11;70.64;92992.72;4836359;29;20029;-73
2023/11/26 05:28:38;;;;;;;3.67;2.55;;;;;;;-1.20;71.29;93000.59;4853982;29;20061;-72
2023/11/26 05:31:04;;;;;;;3.72;2.58;;;;;;;-1.23;71.49;93012.16;4855534;29;20061;-73
2023/11/26 05:33:29;;;;;;;3.88;1.98;;;;;;;-1.22;70.99;93021.78;4870726;29;20116;-72
2023/11/26 05:35:55;;;;;;;3.60;2.53;;;;;;;-1.22;70.64;93027.94;4838615;29;20034;-71
2023/11/26 05:38:20;;;;;;;3.47;2.45;;;;;;;-1.19;70.21;93035.22;4870744;29;20071;-73
2023/11/26 05:40:46;;;;;;;3.75;2.38;;;;;;;-1.17;70.18;93048.28;4853857;29;20069;-71
2023/11/26 05:43:12;;;;;;;3.00;2.33;;;;;;;-1.20;69.87;93039.09;4856476;29;20042;-72
2023/11/26 05:45:37;;;;;;;6.82;2.55;;;;;;;-1.22;70.28;93054.91;4869847;29;20056;-72
2023/11/26 05:48:04;;;;;;;8.95;2.30;;;;;;;-1.20;69.58;93073.38;4855734;29;20477;-72
2023/11/26 05:50:29;;;;;;;3.35;2.03;;;;;;;-1.27;69.59;93085.00;4854855;29;20048;-71
2023/11/26 05:52:55;;;;;;;5.82;3.08;;;;;;;-1.27;69.65;93079.63;4869815;29;20029;-71
2023/11/26 05:55:22;;;;;;;3.30;1.85;;;;;;;-1.33;69.63;93090.09;4869889;29;20037;-72
2023/11/26 05:57:48;;;;;;;3.85;2.40;;;;;;;-1.35;69.29;93089.75;4855222;29;20536;-73
2023/11/26 06:00:14;;;;;;;4.15;2.85;;;;;;;-1.32;69.62;93093.53;4839251;29;20480;-72
2023/11/26 06:02:40;;;;;;;3.08;2.55;;;;;;;-1.26;68.99;93118.91;4869273;29;20044;-72
2023/11/26 06:05:07;;;;;;;5.60;2.90;;;;;;;-1.26;68.72;93099.25;4870047;29;20025;-71
2023/11/26 06:07:33;;;;;;;3.78;2.40;;;;;;;-1.25;69.18;93125.06;4854038;29;20120;-72
2023/11/26 06:09:58;;;;;;;4.15;2.53;;;;;;;-1.23;68.39;93142.34;4855309;29;20706;-72
2023/11/26 06:12:24;;;;;;;3.92;2.30;;;;;;;-1.25;68.95;93133.16;4855663;29;20439;-72
2023/11/26 06:14:49;;;;;;;4.80;2.85;;;;;;;-1.22;68.87;93151.19;4868911;29;20457;-73
2023/11/26 06:17:15;;;;;;;3.05;1.98;;;;;;;-1.22;68.76;93154.66;4869969;29;20034;-72
2023/11/26 06:19:41;;;;;;;2.20;1.95;;;;;;;-1.18;67.75;93174.25;4854541;29;20029;-73
2023/11/26 06:22:06;;;;;;;3.10;1.90;;;;;;;-1.18;67.38;93185.06;4854552;29;20029;-72
2023/11/26 06:24:33;;;;;;;4.55;2.13;;;;;;;-1.27;67.94;93190.16;4838336;29;20093;-72
2023/11/26 06:26:58;;;;;;;4.28;1.92;;;;;;;-1.22;67.25;93199.75;4838842;29;20136;-72
2023/11/26 06:29:24;;;;;;;2.58;1.98;;;;;;;-1.28;67.94;93195.97;4854876;29;20026;-72
2023/11/26 06:31:49;;;;;;;4.90;2.42;;;;;;;-1.25;68.61;93217.50;4854700;29;20030;-72
2023/11/26 06:34:15;;;;;;;4.20;2.08;;;;;;;-1.21;68.24;93223.59;4855377;29;20034;-72
2023/11/26 06:36:41;;;;;;;2.33;1.50;;;;;;;-1.24;67.82;93224.41;4868076;29;20030;-72
2023/11/26 06:39:07;;;;;;;4.18;2.30;;;;;;;-1.27;66.98;93236.00;4855282;29;20065;-71
2023/11/26 06:41:41;;;;;;;3.03;2.00;;;;;;;-1.29;68.31;93241.03;4837088;29;20084;-71
2023/11/26 06:44:06;;;;;;;5.07;2.17;;;;;;;-1.26;67.50;93255.63;4839521;29;20097;-72
2023/11/26 06:46:32;;;;;;;10.00;2.83;;;;;;;-1.20;68.40;93252.13;4868821;29;20026;-73
2023/11/26 06:48:58;;;;;;;4.68;2.63;;;;;;;-1.29;68.03;93262.59;4868683;29;20066;-71
2023/11/26 06:51:23;;;;;;;5.15;2.35;;;;;;;-1.25;68.20;93265.28;4838416;29;20037;-72
2023/11/26 06:53:50;;;;;;;4.75;2.25;;;;;;;-1.27;67.55;93281.06;4868300;29;20033;-72
2023/11/26 06:56:16;;;;;;;2.80;2.03;;;;;;;-1.22;66.81;93288.72;4838529;29;20466;-72
2023/11/26 06:58:46;;;;;;;3.17;2.03;;;;;;;-1.29;66.42;93291.50;4867925;29;20116;-71
2023/11/26 07:01:12;;;;;;;3.58;2.50;;;;;;;-1.21;67.27;93301.78;4854146;29;20406;-72
2023/11/26 07:03:39;;;;;;;4.30;2.75;;;;;;;-1.17;66.77;93299.84;4868413;29;20022;-73
2023/11/26 07:06:09;;;;;;;2.40;1.67;;;;;;;-1.22;69.41;93307.59;4837941;29;20026;-72
2023/11/26 07:08:38;;;;;;;4.40;2.63;;;;;;;-1.23;69.69;93327.63;4854864;29;20067;-72
2023/11/26 07:11:05;;;;;;;5.10;2.80;;;;;;;-1.19;68.37;93336.47;4867514;29;20038;-72
2023/11/26 07:13:31;;;;;;;4.35;2.85;;;;;;;-1.20;68.12;93338.41;4838539;29;20030;-72
2023/11/26 07:15:57;;;;;;;4.05;2.17;;;;;;;-1.13;67.96;93343.72;4867914;29;20038;-73
2023/11/26 07:18:23;;;;;;;3.80;2.15;;;;;;;-1.10;66.97;93345.59;4868797;29;20049;-71
2023/11/26 07:20:49;;;;;;;4.90;2.55;;;;;;;-1.04;67.42;93358.66;4868393;29;20108;-73
2023/11/26 07:23:14;;;;;;;2.90;1.88;;;;;;;-1.02;66.60;93359.03;4868461;29;20116;-73
2023/11/26 07:25:39;;;;;;;3.95;2.47;;;;;;;-1.00;66.61;93372.88;4837422;29;20029;-73
2023/11/26 07:28:08;;;;;;;3.83;2.40;;;;;;;-1.01;66.56;93365.97;4853630;29;20025;-71
2023/11/26 07:30:42;;;;;;;8.30;2.78;;;;;;;-1.07;66.05;93369.09;4868011;29;20022;-71
2023/11/26 07:33:08;;;;;;;4.70;2.53;;;;;;;-1.09;69.06;93387.59;4860213;29;20025;-73
2023/11/26 07:35:34;;;;;;;2.92;2.30;;;;;;;-1.10;68.17;93388.00;4837764;29;20037;-72
2023/11/26 07:38:03;;;;;;;3.90;2.53;;;;;;;-1.21;69.28;93390.78;4837172;29;20538;-73
2023/11/26 07:40:32;;;;;;;4.10;2.67;;;;;;;-1.17;69.65;93393.44;4853755;29;20607;-72
2023/11/26 07:42:59;;;;;;;3.50;2.35;;;;;;;-1.10;69.49;93391.44;4852788;29;20033;-73
2023/11/26 07:45:25;;;;;;;4.25;2.17;;;;;;;-1.05;67.87;93421.84;4867699;29;20026;-72
2023/11/26 07:47:50;;;;;;;3.97;2.50;;;;;;;-1.04;67.04;93424.16;4868437;29;20505;-72
2023/11/26 07:50:15;;;;;;;3.97;2.28;;;;;;;-1.03;67.33;93425.69;4836488;29;20416;-73
2023/11/26 07:52:41;;;;;;;3.83;2.75;;;;;;;-1.01;67.27;93431.47;4867960;29;20181;-72
2023/11/26 07:55:07;;;;;;;3.50;1.98;;;;;;;-1.11;65.02;93433.06;4853152;29;20074;-72
2023/11/26 07:57:33;;;;;;;3.80;2.03;;;;;;;-0.99;66.47;93450.69;4853598;29;20108;-72
2023/11/26 07:59:59;;;;;;;4.07;2.75;;;;;;;-0.90;66.51;93444.84;4867796;29;20477;-73
2023/11/26 08:02:26;;;;;;;4.13;2.22;;;;;;;-0.84;66.20;93468.31;4867462;29;20040;-72
2023/11/26 08:04:53;;;;;;;6.75;3.15;;;;;;;-0.79;65.41;93464.41;4853966;29;20097;-72
2023/11/26 08:07:25;;;;;;;3.83;2.40;;;;;;;-0.77;64.86;93458.59;4852894;29;20078;-72
2023/11/26 08:09:51;;;;;;;4.60;2.80;;;;;;;-0.75;64.83;93477.84;4867939;29;20041;-72
2023/11/26 08:12:20;;;;;;;3.40;2.42;;;;;;;-0.68;64.92;93481.28;4866949;29;20077;-72
2023/11/26 08:14:45;;;;;;;7.22;3.35;;;;;;;-0.61;64.97;93494.69;4837147;29;20030;-72
2023/11/26 08:17:11;;;;;;;5.65;3.10;;;;;;;-0.69;63.19;93503.25;4836637;29;20481;-73
2023/11/26 08:19:39;;;;;;;3.13;2.75;;;;;;;-0.72;64.36;93499.41;4851776;29;20080;-73
2023/11/26 08:22:04;;;;;;;3.47;2.40;;;;;;;-0.65;64.50;93499.34;4852170;29;20336;-73
2023/11/26 08:24:30;;;;;;;2.70;1.88;;;;;;;-0.70;63.34;93513.28;4852859;29;20036;-72
2023/11/26 08:26:56;;;;;;;4.68;2.60;;;;;;;-0.73;63.72;93503.28;4852428;29;20037;-73
2023/11/26 08:29:23;;;;;;;4.20;2.75;;;;;;;-0.55;63.13;93527.41;4852133;29;20029;-72
2023/11/26 08:31:49;;;;;;;3.33;2.60;;;;;;;-0.48;63.28;93530.03;4853603;29;20034;-73
2023/11/26 08:34:17;;;;;;;4.43;2.70;;;;;;;-0.41;62.57;93538.06;4836142;29;20045;-72
2023/11/26 08:36:43;;;;;;;3.35;2.40;;;;;;;-0.50;63.91;93532.38;4867008;29;20117;-72
2023/11/26 08:39:14;;;;;;;6.05;2.92;;;;;;;-0.41;64.50;93556.19;4867834;29;20029;-72
2023/11/26 08:41:42;;;;;;;3.38;2.60;;;;;;;-0.34;63.71;93559.63;4865923;29;20033;-71
2023/11/26 08:44:09;;;;;;;4.85;2.42;;;;;;;-0.27;62.73;93564.19;4860386;29;20170;-72
2023/11/26 08:46:36;;;;;;;3.65;2.17;;;;;;;-0.27;61.87;93570.34;4866249;29;20029;-72
2023/11/26 08:49:03;;;;;;;5.65;2.22;;;;;;;-0.19;61.33;93568.34;4867863;29;20090;-72
2023/11/26 08:51:32;;;;;;;4.18;2.80;;;;;;;-0.08;61.11;93568.25;4852872;29;20032;-73
2023/11/26 08:53:58;;;;;;;4.45;2.53;;;;;;;0.01;61.07;93573.94;4867167;29;20501;-73
2023/11/26 08:56:25;;;;;;;3.03;2.30;;;;;;;0.07;60.28;93569.63;4853053;29;20137;-73
2023/11/26 08:58:51;;;;;;;6.30;2.33;;;;;;;0.26;59.90;93589.88;4851065;29;20038;-73
2023/11/26 09:01:17;;;;;;;3.03;2.22;;;;;;;0.62;58.69;93590.22;4836822;29;20030;-73
2023/11/26 09:03:42;;;;;;;4.18;2.30;;;;;;;1.03;57.97;93597.41;4854213;29;20037;-73
2023/11/26 09:06:08;;;;;;;3.47;2.42;;;;;;;2.20;55.62;93602.13;4871230;29;20030;-73
2023/11/26 09:08:34;;;;;;;4.65;2.58;;;;;;;2.99;53.03;93609.50;4854396;29;20057;-72
2023/11/26 09:10:59;;;;;;;4.03;2.60;;;;;;;4.26;49.38;93605.72;4856606;29;20030;-73
2023/11/26 09:13:28;;;;;;;3.97;2.30;;;;;;;4.50;48.24;93591.91;4870394;29;20030;-72
2023/11/26 09:15:54;;;;;;;4.25;2.17;;;;;;;5.55;47.06;93610.28;4839334;29;20038;-72
2023/11/26 09:18:21;;;;;;;4.95;2.38;;;;;;;6.53;44.95;93604.75;4856671;29;20033;-72
2023/11/26 09:20:47;;;;;;;3.50;2.50;;;;;;;7.24;42.25;93614.38;4869823;29;20025;-73
2023/11/26 09:23:13;;;;;;;4.40;3.20;;;;;;;7.61;40.64;93612.56;4871267;29;20029;-72
2023/11/26 09:25:39;;;;;;;5.70;3.55;;;;;;;7.97;40.30;93609.19;4869743;29;20033;-73
2023/11/26 09:28:05;;;;;;;5.45;3.40;;;;;;;8.88;38.04;93608.56;4839667;29;20050;-73
2023/11/26 09:30:31;;;;;;;4.22;2.47;;;;;;;9.63;36.92;93618.94;4856013;29;20030;-72
2023/11/26 09:32:56;;;;;;;2.67;1.85;;;;;;;10.14;35.45;93620.84;4856104;29;20030;-72
2023/11/26 09:35:22;;;;;;;3.33;2.10;;;;;;;10.78;33.98;93616.97;4856763;29;20034;-72
2023/11/26 09:37:47;;;;;;;2.85;2.00;;;;;;;11.44;33.61;93616.69;4869704;29;20098;-71
2023/11/26 09:40:13;;;;;;;3.10;2.28;;;;;;;12.42;32.27;93628.25;4839741;29;20044;-73
2023/11/26 09:42:40;;;;;;;3.33;2.20;;;;;;;12.66;31.06;93628.06;4855288;29;20026;-72
2023/11/26 09:45:09;;;;;;;4.03;2.03;;;;;;;13.50;29.89;93631.06;4839761;29;20116;-72
2023/11/26 09:47:35;;;;;;;4.50;2.30;;;;;;;13.67;29.76;93603.63;4855545;29;20029;-73
2023/11/26 09:50:00;;;;;;;4.13;2.67;;;;;;;13.93;30.23;93623.66;4856137;29;20113;-73
2023/11/26 09:52:26;;;;;;;3.45;2.90;;;;;;;14.48;28.51;93639.16;4856039;29;20026;-72
2023/11/26 09:54:52;;;;;;;2.60;2.08;;;;;;;15.49;27.90;93641.63;4869808;29;20419;-73
2023/11/26 09:57:17;;;;;;;3.35;2.30;;;;;;;15.63;26.37;93654.50;4839123;29;20386;-72
2023/11/26 09:59:43;;;;;;;3.90;2.22;;;;;;;16.16;25.55;93639.69;4855279;29;20110;-72
2023/11/26 10:02:11;;;;;;;3.67;2.25;;;;;;;16.37;25.14;93656.06;4870275;29;20113;-71
2023/11/26 10:04:47;;;;;;;2.90;2.20;;;;;;;16.87;24.50;93661.56;4868664;29;20395;-73
2023/11/26 10:07:13;;;;;;;3.05;1.90;;;;;;;17.24;23.69;93657.66;4855893;29;20037;-72
2023/11/26 10:09:38;;;;;;;3.55;1.92;;;;;;;17.73;23.54;93661.50;4838902;29;20086;-72
2023/11/26 10:12:04;;;;;;;4.13;2.35;;;;;;;17.68;23.61;93659.47;4855094;29;20533;-72
2023/11/26 10:14:29;;;;;;;3.53;2.40;;;;;;;17.45;23.61;93658.06;4856153;29;20122;-72
2023/11/26 10:16:55;;;;;;;3.53;2.42;;;;;;;18.09;23.28;93658.72;4869317;29;20037;-72
2023/11/26 10:19:24;;;;;;;4.03;2.45;;;;;;;17.73;23.68;93671.84;4870178;29;20022;-73
2023/11/26 10:21:57;;;;;;;2.85;2.25;;;;;;;16.56;24.39;93670.91;4868896;29;20120;-73
2023/11/26 10:24:28;;;;;;;3.58;2.60;;;;;;;16.68;24.00;93663.31;4839187;29;20032;-71
2023/11/26 10:26:54;;;;;;;3.20;2.38;;;;;;;15.19;25.29;93682.78;4869631;29;20116;-73
2023/11/26 10:29:28;;;;;;;3.88;2.70;;;;;;;13.96;27.78;93694.50;4868950;29;20337;-73
2023/11/26 10:32:06;;;;;;;4.65;2.92;;;;;;;12.62;28.37;93701.22;4869366;29;20037;-72
2023/11/26 10:34:34;;;;;;;4.07;2.42;;;;;;;11.66;29.17;93691.41;4868793;29;20065;-72
2023/11/26 10:36:59;;;;;;;6.47;3.42;;;;;;;10.78;30.76;93700.22;4870052;29;20516;-72
2023/11/26 10:39:25;;;;;;;5.70;3.40;;;;;;;12.20;29.70;93688.56;4868192;29;20029;-73
2023/11/26 10:41:51;;;;;;;4.13;2.95;;;;;;;13.58;27.37;93697.66;4838759;29;20045;-72
2023/11/26 10:44:17;;;;;;;4.50;3.25;;;;;;;13.20;28.21;93711.25;4854696;29;20108;-72
2023/11/26 10:46:48;;;;;;;5.07;3.08;;;;;;;12.76;29.17;93709.44;4838406;29;20040;-72
2023/11/26 10:49:32;;;;;;;4.13;2.50;;;;;;;12.28;29.03;93720.00;4853899;29;20636;-73
2023/11/26 10:52:17;;;;;;;4.15;2.20;;;;;;;12.37;28.59;93733.66;4854113;29;20065;-72
2023/11/26 10:55:18;;;;;;;3.85;2.13;;;;;;;12.90;27.76;93721.66;4869339;29;20033;-71
2023/11/26 10:57:49;;;;;;;5.43;2.42;;;;;;;12.77;27.89;93737.75;4869143;29;20136;-73
2023/11/26 11:00:19;;;;;;;4.03;2.42;;;;;;;13.01;27.80;93735.59;4868126;29;20025;-73
2023/11/26 11:02:45;;;;;;;3.33;2.40;;;;;;;12.75;27.95;93743.78;4838879;29;20025;-72
2023/11/26 11:05:11;;;;;;;3.78;2.20;;;;;;;13.20;27.83;93741.63;4868115;29;20041;-71
2023/11/26 11:07:38;;;;;;;3.13;2.83;;;;;;;13.73;26.68;93754.31;4869353;29;20515;-72
2023/11/26 11:10:13;;;;;;;3.90;2.40;;;;;;;13.43;26.87;93755.72;4852980;29;20181;-72
2023/11/26 11:12:50;;;;;;;4.55;2.97;;;;;;;13.25;26.86;93756.75;4854376;29;20037;-72
2023/11/26 11:15:17;;;;;;;4.68;3.67;;;;;;;13.51;26.65;93773.38;4848768;29;20112;-73
2023/11/26 11:17:43;;;;;;;3.03;2.25;;;;;;;12.20;27.86;93777.47;4852536;29;20037;-73
2023/11/26 11:20:10;;;;;;;3.47;2.00;;;;;;;11.06;29.88;93788.78;4855289;29;20038;-72
2023/11/26 11:22:37;;;;;;;3.88;2.33;;;;;;;10.11;31.75;93789.31;4867430;29;20085;-72
2023/11/26 11:25:07;;;;;;;3.33;2.33;;;;;;;9.34;32.37;93786.00;4822936;29;20084;-72
2023/11/26 11:27:50;;;;;;;4.13;2.10;;;;;;;8.76;33.53;93804.78;4867778;29;20588;-73
2023/11/26 11:30:31;;;;;;;;;;;;;;;9.68;32.53;93798.66;4847811;29;20033;-75
2023/11/26 11:33:07;;;;;;;4.93;2.60;;;;;;;10.48;30.19;93800.97;4868805;29;20364;-73
2023/11/26 11:35:46;;;;;;;5.68;2.85;;;;;;;10.22;31.13;93792.34;4867230;29;20097;-72
2023/11/26 11:38:13;;;;;;;5.35;3.10;;;;;;;9.09;32.39;93828.19;4845662;29;20413;-72